Time;durP1;ratioP1;P1;durP2;ratioP2;P2;SDS_P1;SDS_P2;PMS_P1;PMS_P2;Temp;Humidity;BMP_temperature;BMP_pressure;BME280_temperature;BME280_humidity;BME280_pressure;Samples;Min_cycle;Max_cycle;Signal;HPM_P1;HPM_P2
2022/10/12 00:01:11;;;;;;;19.63;8.80;;;;;;;;;;4996848;28;20038;-74
2022/10/12 00:03:37;;;;;;;28.65;9.27;;;;;;;;;;4997204;28;20042;-74
2022/10/12 00:06:05;;;;;;;20.02;8.85;;;;;;;;;;4997008;28;20027;-74
2022/10/12 00:08:31;;;;;;;21.80;8.65;;;;;;;;;;4997918;28;20026;-73
2022/10/12 00:10:57;;;;;;;24.20;8.73;;;;;;;;;;5005710;28;20065;-74
2022/10/12 00:13:23;;;;;;;22.13;9.48;;;;;;;;;;5012480;28;20030;-74
2022/10/12 00:15:49;;;;;;;24.05;8.88;;;;;;;;;;5020321;28;20010;-73
2022/10/12 00:18:15;;;;;;;18.90;9.00;;;;;;;;;;4999618;28;20030;-74
2022/10/12 00:20:41;;;;;;;15.05;7.60;;;;;;;;;;5015924;28;20034;-74
2022/10/12 00:23:07;;;;;;;23.25;8.50;;;;;;;;;;5015818;28;20046;-73
2022/10/12 00:25:38;;;;;;;19.35;8.77;;;;;;;;;;5013687;28;20027;-73
2022/10/12 00:28:04;;;;;;;22.40;8.63;;;;;;;;;;4996692;28;20022;-73
2022/10/12 00:30:30;;;;;;;22.02;8.75;;;;;;;;;;4996593;28;20084;-76
2022/10/12 00:32:56;;;;;;;21.92;9.05;;;;;;;;;;4978816;28;20468;-74
2022/10/12 00:35:22;;;;;;;23.38;8.82;;;;;;;;;;4996101;28;20034;-75
2022/10/12 00:37:48;;;;;;;17.27;8.15;;;;;;;;;;4996397;28;20464;-76
2022/10/12 00:40:14;;;;;;;20.65;8.25;;;;;;;;;;4995941;28;20033;-76
2022/10/12 00:42:40;;;;;;;19.08;8.30;;;;;;;;;;4996065;28;20026;-75
2022/10/12 00:45:06;;;;;;;19.45;8.05;;;;;;;;;;4996596;28;20054;-76
2022/10/12 00:47:36;;;;;;;19.20;8.48;;;;;;;;;;4994819;28;20022;-75
2022/10/12 00:50:10;;;;;;;20.10;8.50;;;;;;;;;;4995733;28;20161;-75
2022/10/12 00:52:36;;;;;;;;;;;;;;;;;;4998134;28;20649;-74
2022/10/12 00:55:03;;;;;;;17.20;8.15;;;;;;;;;;4998816;28;20024;-76
2022/10/12 00:57:29;;;;;;;22.98;8.93;;;;;;;;;;4997664;28;20047;-74
2022/10/12 01:00:02;;;;;;;19.77;7.50;;;;;;;;;;4978150;28;20446;-75
2022/10/12 01:02:29;;;;;;;19.48;7.60;;;;;;;;;;4996502;28;20030;-73
2022/10/12 01:04:56;;;;;;;20.63;7.80;;;;;;;;;;4996496;28;20033;-75
2022/10/12 01:07:22;;;;;;;20.80;8.13;;;;;;;;;;4995583;28;20026;-75
2022/10/12 01:09:48;;;;;;;19.67;8.02;;;;;;;;;;4998122;28;20025;-72
2022/10/12 01:12:14;;;;;;;16.00;7.68;;;;;;;;;;4997104;28;20061;-75
2022/10/12 01:14:40;;;;;;;18.67;7.78;;;;;;;;;;4995636;28;20531;-75
2022/10/12 01:17:15;;;;;;;19.35;7.88;;;;;;;;;;4977963;28;20118;-74
2022/10/12 01:19:51;;;;;;;20.20;7.10;;;;;;;;;;4978066;28;20472;-74
2022/10/12 01:22:19;;;;;;;22.88;7.65;;;;;;;;;;4996184;28;20030;-75
2022/10/12 01:25:09;;;;;;;17.17;6.68;;;;;;;;;;4995862;28;20044;-75
2022/10/12 01:27:39;;;;;;;15.45;6.50;;;;;;;;;;4996610;28;20023;-75
2022/10/12 01:30:05;;;;;;;14.38;6.25;;;;;;;;;;4999813;28;20018;-75
2022/10/12 01:32:34;;;;;;;15.63;6.82;;;;;;;;;;5000481;28;20480;-74
2022/10/12 01:35:10;;;;;;;16.55;6.20;;;;;;;;;;4999833;28;20432;-75
2022/10/12 01:37:42;;;;;;;15.60;7.13;;;;;;;;;;4996590;28;20030;-74
2022/10/12 01:40:11;;;;;;;18.52;6.03;;;;;;;;;;4997537;28;20312;-74
2022/10/12 01:42:39;;;;;;;16.23;6.00;;;;;;;;;;4995943;28;20153;-74
2022/10/12 01:45:08;;;;;;;15.90;6.03;;;;;;;;;;4997546;28;20026;-74
2022/10/12 01:47:34;;;;;;;17.42;6.25;;;;;;;;;;4998714;28;20036;-74
2022/10/12 01:50:02;;;;;;;15.82;6.05;;;;;;;;;;5002386;28;20026;-73
2022/10/12 01:52:29;;;;;;;13.13;5.82;;;;;;;;;;4998333;28;20519;-75
2022/10/12 01:54:55;;;;;;;16.58;5.90;;;;;;;;;;4998910;28;20023;-75
2022/10/12 01:57:30;;;;;;;19.33;6.57;;;;;;;;;;4997151;28;20024;-74
2022/10/12 02:00:06;;;;;;;21.25;6.18;;;;;;;;;;4997331;28;20026;-74
2022/10/12 02:02:58;;;;;;;17.80;6.03;;;;;;;;;;4997875;28;20026;-74
2022/10/12 02:05:43;;;;;;;15.65;5.93;;;;;;;;;;4992097;28;20062;-74
2022/10/12 02:08:15;;;;;;;14.88;5.25;;;;;;;;;;4994711;28;20026;-74
2022/10/12 02:10:47;;;;;;;20.52;6.20;;;;;;;;;;4994655;28;20053;-76
2022/10/12 02:13:14;;;;;;;18.58;5.90;;;;;;;;;;4995140;28;20026;-75
2022/10/12 02:15:42;;;;;;;11.57;5.50;;;;;;;;;;4994645;28;20031;-74
2022/10/12 02:18:09;;;;;;;15.38;5.38;;;;;;;;;;4994857;28;20026;-74
2022/10/12 02:20:37;;;;;;;15.82;5.90;;;;;;;;;;4994383;28;20037;-75
2022/10/12 02:23:03;;;;;;;18.23;5.57;;;;;;;;;;4994399;28;20045;-75
2022/10/12 02:25:30;;;;;;;15.73;5.22;;;;;;;;;;4994240;28;20420;-74
2022/10/12 02:28:02;;;;;;;17.20;5.90;;;;;;;;;;4994405;28;20033;-74
2022/10/12 02:30:28;;;;;;;17.75;5.88;;;;;;;;;;4994115;28;20385;-73
2022/10/12 02:32:58;;;;;;;20.80;5.25;;;;;;;;;;4994413;28;20023;-75
2022/10/12 02:35:24;;;;;;;14.15;5.47;;;;;;;;;;4994501;28;20026;-75
2022/10/12 02:37:50;;;;;;;15.38;5.03;;;;;;;;;;5002939;28;20037;-74
2022/10/12 02:40:22;;;;;;;15.73;4.97;;;;;;;;;;5012224;28;20034;-75
2022/10/12 02:42:50;;;;;;;14.60;4.93;;;;;;;;;;5011787;28;20026;-74
2022/10/12 02:45:18;;;;;;;16.88;5.82;;;;;;;;;;5013822;28;20033;-73
2022/10/12 02:47:44;;;;;;;17.08;5.05;;;;;;;;;;5017108;28;20070;-74
2022/10/12 02:50:11;;;;;;;14.35;5.03;;;;;;;;;;5004823;28;20108;-75
2022/10/12 02:52:37;;;;;;;15.40;5.22;;;;;;;;;;4998428;28;20026;-74
2022/10/12 02:55:03;;;;;;;19.13;6.25;;;;;;;;;;4998143;28;20037;-76
2022/10/12 02:57:30;;;;;;;15.00;5.00;;;;;;;;;;4995420;28;20029;-75
2022/10/12 02:59:56;;;;;;;21.25;5.35;;;;;;;;;;4977214;28;20037;-74
2022/10/12 03:02:22;;;;;;;15.65;5.28;;;;;;;;;;4994470;28;20030;-76
2022/10/12 03:04:48;;;;;;;14.80;5.82;;;;;;;;;;4994819;28;20030;-75
2022/10/12 03:07:14;;;;;;;15.88;5.15;;;;;;;;;;4993371;28;20034;-75
2022/10/12 03:09:40;;;;;;;12.60;5.05;;;;;;;;;;4996303;28;20081;-75
2022/10/12 03:12:06;;;;;;;14.77;4.93;;;;;;;;;;5007378;28;20022;-76
2022/10/12 03:14:33;;;;;;;21.55;5.80;;;;;;;;;;5000472;28;20435;-74
2022/10/12 03:17:00;;;;;;;19.33;5.68;;;;;;;;;;5000077;28;20383;-75
2022/10/12 03:19:26;;;;;;;22.25;6.30;;;;;;;;;;5000598;28;20038;-77
2022/10/12 03:21:52;;;;;;;17.92;5.57;;;;;;;;;;5000828;28;20030;-76
2022/10/12 03:24:17;;;;;;;18.25;6.35;;;;;;;;;;5000657;28;20062;-75
2022/10/12 03:26:43;;;;;;;23.98;6.53;;;;;;;;;;5000026;28;20491;-76
2022/10/12 03:29:09;;;;;;;20.60;6.95;;;;;;;;;;5000290;28;20034;-76
2022/10/12 03:31:35;;;;;;;18.63;6.53;;;;;;;;;;5012002;28;20070;-76
2022/10/12 03:34:01;;;;;;;24.73;6.72;;;;;;;;;;5023482;28;20029;-74
2022/10/12 03:36:27;;;;;;;16.35;6.63;;;;;;;;;;5014101;28;20042;-75
2022/10/12 03:38:53;;;;;;;20.08;6.45;;;;;;;;;;4999360;28;20140;-75
2022/10/12 03:41:19;;;;;;;27.05;6.47;;;;;;;;;;4999825;28;20113;-75
2022/10/12 03:43:45;;;;;;;20.05;6.18;;;;;;;;;;4999864;28;20161;-73
2022/10/12 03:46:11;;;;;;;16.98;5.88;;;;;;;;;;4999357;28;20023;-74
2022/10/12 03:48:37;;;;;;;19.33;5.78;;;;;;;;;;5000056;28;20505;-74
2022/10/12 03:51:03;;;;;;;17.35;5.97;;;;;;;;;;4999500;28;20464;-75
2022/10/12 03:53:30;;;;;;;16.85;5.43;;;;;;;;;;5000491;28;20113;-77
2022/10/12 03:55:56;;;;;;;12.90;5.50;;;;;;;;;;5000147;28;20037;-76
2022/10/12 03:58:22;;;;;;;13.93;5.40;;;;;;;;;;5000816;28;20034;-75
2022/10/12 04:00:51;;;;;;;18.88;6.35;;;;;;;;;;5010191;28;20030;-74
2022/10/12 04:03:17;;;;;;;16.83;6.10;;;;;;;;;;5009471;28;20026;-74
2022/10/12 04:05:43;;;;;;;15.63;6.57;;;;;;;;;;4999769;28;20041;-74
2022/10/12 04:08:09;;;;;;;17.92;5.78;;;;;;;;;;4999773;28;20113;-75
2022/10/12 04:10:35;;;;;;;24.73;5.97;;;;;;;;;;5000045;28;20465;-73
2022/10/12 04:13:01;;;;;;;15.40;6.05;;;;;;;;;;5000218;28;20026;-76
2022/10/12 04:15:27;;;;;;;11.80;6.03;;;;;;;;;;4999537;28;20476;-76
2022/10/12 04:17:53;;;;;;;14.60;5.80;;;;;;;;;;4999974;28;20105;-76
2022/10/12 04:20:19;;;;;;;18.50;6.53;;;;;;;;;;5000324;28;20031;-74
2022/10/12 04:22:45;;;;;;;21.92;6.82;;;;;;;;;;4996328;28;20141;-74
2022/10/12 04:25:11;;;;;;;21.88;6.32;;;;;;;;;;4997131;28;20448;-74
2022/10/12 04:27:37;;;;;;;19.33;6.82;;;;;;;;;;4996665;28;20069;-74
2022/10/12 04:30:03;;;;;;;17.92;6.47;;;;;;;;;;4996647;28;20030;-75
2022/10/12 04:32:30;;;;;;;19.38;7.03;;;;;;;;;;4996839;28;20065;-75
2022/10/12 04:34:56;;;;;;;24.38;7.00;;;;;;;;;;4997026;28;20499;-74
2022/10/12 04:37:22;;;;;;;17.85;7.13;;;;;;;;;;4996675;28;20105;-74
2022/10/12 04:39:48;;;;;;;22.23;7.82;;;;;;;;;;4996551;28;20027;-74
2022/10/12 04:42:14;;;;;;;17.52;7.32;;;;;;;;;;4997010;28;20034;-75
2022/10/12 04:44:39;;;;;;;17.08;7.70;;;;;;;;;;4996839;28;20026;-75
2022/10/12 04:47:05;;;;;;;18.00;6.70;;;;;;;;;;4996932;28;20022;-76
2022/10/12 04:49:31;;;;;;;21.00;7.05;;;;;;;;;;4996951;28;20023;-76
2022/10/12 04:51:57;;;;;;;24.13;7.40;;;;;;;;;;4996728;28;20034;-75
2022/10/12 04:54:23;;;;;;;20.10;7.55;;;;;;;;;;4996613;28;20081;-73
2022/10/12 04:56:49;;;;;;;20.75;7.63;;;;;;;;;;4996475;28;20026;-75
2022/10/12 04:59:15;;;;;;;27.20;9.52;;;;;;;;;;4982633;28;20030;-74
2022/10/12 05:01:41;;;;;;;22.85;8.68;;;;;;;;;;5016761;28;20034;-74
2022/10/12 05:04:07;;;;;;;19.08;9.27;;;;;;;;;;5018722;28;20037;-75
2022/10/12 05:06:33;;;;;;;22.30;7.97;;;;;;;;;;5019437;28;20042;-74
2022/10/12 05:08:59;;;;;;;22.35;8.60;;;;;;;;;;5015150;28;20019;-74
2022/10/12 05:11:25;;;;;;;16.38;6.97;;;;;;;;;;5019158;28;20025;-73
2022/10/12 05:13:51;;;;;;;18.58;6.07;;;;;;;;;;5007335;28;20058;-74
2022/10/12 05:16:17;;;;;;;15.02;5.95;;;;;;;;;;5002493;28;20026;-76
2022/10/12 05:18:43;;;;;;;16.48;6.95;;;;;;;;;;5002655;28;20049;-74
2022/10/12 05:21:09;;;;;;;17.35;7.07;;;;;;;;;;4996634;28;20102;-74
2022/10/12 05:23:35;;;;;;;21.10;7.53;;;;;;;;;;4996525;28;20326;-76
2022/10/12 05:26:01;;;;;;;22.58;8.88;;;;;;;;;;4996443;28;20354;-74
2022/10/12 05:28:27;;;;;;;23.13;7.38;;;;;;;;;;4978747;28;20104;-73
2022/10/12 05:30:53;;;;;;;19.95;6.78;;;;;;;;;;4999068;28;20026;-75
2022/10/12 05:33:19;;;;;;;18.42;6.90;;;;;;;;;;4995242;28;20045;-75
2022/10/12 05:35:45;;;;;;;17.08;7.18;;;;;;;;;;4995853;28;20030;-74
2022/10/12 05:38:11;;;;;;;16.20;7.13;;;;;;;;;;4997527;28;20030;-74
2022/10/12 05:40:37;;;;;;;18.67;7.13;;;;;;;;;;4997688;28;20070;-74
2022/10/12 05:43:03;;;;;;;14.45;7.32;;;;;;;;;;4998617;28;20045;-74
2022/10/12 05:45:29;;;;;;;23.02;9.35;;;;;;;;;;4998137;28;20050;-74
2022/10/12 05:47:55;;;;;;;18.30;7.13;;;;;;;;;;4997149;28;20030;-73
2022/10/12 05:50:21;;;;;;;20.25;6.72;;;;;;;;;;4995871;28;20384;-75
2022/10/12 05:52:47;;;;;;;16.50;6.78;;;;;;;;;;4995517;28;20039;-75
2022/10/12 05:55:13;;;;;;;17.33;7.00;;;;;;;;;;4995289;28;20038;-73
2022/10/12 05:57:39;;;;;;;18.80;7.40;;;;;;;;;;4996226;28;20033;-74
2022/10/12 06:00:07;;;;;;;23.13;7.47;;;;;;;;;;4995940;28;20030;-76
2022/10/12 06:02:33;;;;;;;22.25;8.40;;;;;;;;;;4978030;28;20065;-74
2022/10/12 06:04:59;;;;;;;21.73;6.95;;;;;;;;;;4978140;28;20464;-74
2022/10/12 06:07:25;;;;;;;17.88;7.57;;;;;;;;;;4995140;28;20046;-73
2022/10/12 06:09:51;;;;;;;17.77;8.30;;;;;;;;;;4995047;28;20038;-74
2022/10/12 06:12:17;;;;;;;17.40;7.80;;;;;;;;;;4995760;28;20037;-74
2022/10/12 06:14:43;;;;;;;20.33;7.97;;;;;;;;;;4995088;28;20030;-73
2022/10/12 06:17:09;;;;;;;15.80;7.97;;;;;;;;;;4995434;28;20037;-75
2022/10/12 06:19:35;;;;;;;18.48;8.13;;;;;;;;;;4996450;28;20121;-75
2022/10/12 06:22:02;;;;;;;16.77;7.32;;;;;;;;;;4998401;28;20106;-73
2022/10/12 06:24:28;;;;;;;16.33;7.30;;;;;;;;;;4994684;28;20088;-74
2022/10/12 06:26:54;;;;;;;23.58;7.32;;;;;;;;;;4995053;28;20109;-75
2022/10/12 06:29:22;;;;;;;20.75;8.50;;;;;;;;;;4995255;28;20034;-74
2022/10/12 06:31:49;;;;;;;17.75;7.90;;;;;;;;;;4994508;28;20030;-73
2022/10/12 06:34:16;;;;;;;23.85;7.55;;;;;;;;;;4994814;28;20076;-78
2022/10/12 06:36:42;;;;;;;17.75;8.07;;;;;;;;;;4994531;28;20532;-73
2022/10/12 06:39:09;;;;;;;17.98;7.82;;;;;;;;;;4994639;28;20030;-74
2022/10/12 06:41:35;;;;;;;19.33;8.77;;;;;;;;;;4995006;28;20066;-72
2022/10/12 06:44:03;;;;;;;18.52;7.55;;;;;;;;;;4993117;28;20045;-72
2022/10/12 06:46:29;;;;;;;23.42;7.68;;;;;;;;;;4979106;28;20058;-73
2022/10/12 06:48:55;;;;;;;20.80;6.90;;;;;;;;;;4994382;28;20087;-72
2022/10/12 06:51:21;;;;;;;16.70;7.53;;;;;;;;;;4994736;28;20018;-74
2022/10/12 06:53:47;;;;;;;16.35;7.22;;;;;;;;;;4995352;28;20036;-73
2022/10/12 06:56:13;;;;;;;19.73;8.43;;;;;;;;;;4994075;28;20174;-72
2022/10/12 06:58:39;;;;;;;18.80;7.30;;;;;;;;;;4994467;28;20049;-74
2022/10/12 07:01:06;;;;;;;17.48;8.10;;;;;;;;;;4995084;28;20612;-73
2022/10/12 07:03:32;;;;;;;20.92;6.90;;;;;;;;;;4994385;28;20491;-74
2022/10/12 07:06:12;;;;;;;16.48;7.18;;;;;;;;;;4994766;28;20030;-76
2022/10/12 07:08:40;;;;;;;17.55;7.63;;;;;;;;;;4978966;28;20487;-74
2022/10/12 07:11:06;;;;;;;22.70;8.90;;;;;;;;;;4994075;28;20122;-72
2022/10/12 07:13:33;;;;;;;31.55;8.30;;;;;;;;;;4994229;28;20026;-74
2022/10/12 07:15:59;;;;;;;31.45;7.30;;;;;;;;;;4993955;28;20061;-73
2022/10/12 07:18:25;;;;;;;24.40;7.20;;;;;;;;;;4994322;28;20035;-72
2022/10/12 07:20:53;;;;;;;27.13;7.20;;;;;;;;;;4997284;28;20047;-75
2022/10/12 07:23:19;;;;;;;27.02;6.43;;;;;;;;;;5003975;28;20058;-74
2022/10/12 07:25:49;;;;;;;35.60;6.28;;;;;;;;;;5016424;28;20022;-76
2022/10/12 07:28:16;;;;;;;31.95;6.03;;;;;;;;;;5017373;28;20034;-78
2022/10/12 07:30:42;;;;;;;22.20;5.25;;;;;;;;;;5017351;28;20049;-77
2022/10/12 07:33:08;;;;;;;29.08;6.35;;;;;;;;;;5017171;28;20019;-76
2022/10/12 07:35:34;;;;;;;35.60;5.78;;;;;;;;;;5011803;28;20085;-73
2022/10/12 07:38:01;;;;;;;34.42;5.60;;;;;;;;;;4994459;28;20420;-73
2022/10/12 07:40:27;;;;;;;30.80;7.00;;;;;;;;;;4993928;28;20077;-74
2022/10/12 07:42:53;;;;;;;36.20;6.20;;;;;;;;;;4993901;28;20480;-73
2022/10/12 07:45:19;;;;;;;33.20;6.10;;;;;;;;;;4994177;28;20035;-74
2022/10/12 07:47:46;;;;;;;32.53;6.10;;;;;;;;;;4995105;28;20082;-74
2022/10/12 07:50:13;;;;;;;39.78;6.97;;;;;;;;;;4997405;28;20018;-72
2022/10/12 07:52:39;;;;;;;34.17;5.75;;;;;;;;;;4993884;28;20026;-76
2022/10/12 07:55:05;;;;;;;24.23;5.05;;;;;;;;;;4993772;28;20109;-74
2022/10/12 07:57:31;;;;;;;31.13;5.65;;;;;;;;;;4996339;28;20391;-73
2022/10/12 07:59:57;;;;;;;26.80;5.55;;;;;;;;;;4997279;28;20030;-74
2022/10/12 08:02:23;;;;;;;35.55;5.32;;;;;;;;;;4978971;28;20023;-76
2022/10/12 08:04:49;;;;;;;25.88;5.05;;;;;;;;;;4996858;28;20026;-74
2022/10/12 08:07:15;;;;;;;36.25;6.55;;;;;;;;;;4996626;28;20449;-75
2022/10/12 08:09:41;;;;;;;27.60;5.47;;;;;;;;;;4996863;28;20380;-72
2022/10/12 08:12:09;;;;;;;29.90;4.97;;;;;;;;;;4996737;28;20035;-75
2022/10/12 08:14:35;;;;;;;28.77;5.75;;;;;;;;;;4996420;28;20121;-75
2022/10/12 08:17:01;;;;;;;29.95;5.82;;;;;;;;;;4995753;28;20081;-80
2022/10/12 08:19:27;;;;;;;24.10;5.88;;;;;;;;;;4995682;28;20053;-74
2022/10/12 08:21:53;;;;;;;21.60;5.15;;;;;;;;;;4995529;28;20026;-73
2022/10/12 08:24:19;;;;;;;20.25;4.22;;;;;;;;;;4995693;28;20034;-74
2022/10/12 08:26:45;;;;;;;26.85;4.47;;;;;;;;;;4995542;28;20384;-73
2022/10/12 08:29:11;;;;;;;34.90;6.82;;;;;;;;;;4995561;28;20038;-73
2022/10/12 08:31:37;;;;;;;28.70;4.78;;;;;;;;;;4996113;28;20029;-75
2022/10/12 08:34:03;;;;;;;21.13;3.90;;;;;;;;;;4978959;28;20034;-73
2022/10/12 08:36:29;;;;;;;20.30;4.18;;;;;;;;;;4995743;28;20050;-75
2022/10/12 08:38:55;;;;;;;28.10;5.65;;;;;;;;;;4995239;28;20034;-73
2022/10/12 08:41:24;;;;;;;16.35;3.78;;;;;;;;;;4995927;28;20033;-73
2022/10/12 08:43:53;;;;;;;19.63;3.88;;;;;;;;;;4996254;28;20038;-76
2022/10/12 08:46:20;;;;;;;18.75;3.17;;;;;;;;;;4979282;28;20026;-74
2022/10/12 08:48:49;;;;;;;20.42;3.60;;;;;;;;;;4979298;28;20029;-75
2022/10/12 08:51:21;;;;;;;16.15;3.47;;;;;;;;;;4998293;28;20402;-74
2022/10/12 08:53:50;;;;;;;18.23;3.50;;;;;;;;;;4997951;28;20104;-75
2022/10/12 08:56:19;;;;;;;19.50;3.47;;;;;;;;;;4996092;28;20034;-74
2022/10/12 08:58:46;;;;;;;17.55;3.90;;;;;;;;;;4996814;28;20054;-73
2022/10/12 09:01:20;;;;;;;23.17;3.42;;;;;;;;;;4995631;28;20035;-74
2022/10/12 09:03:58;;;;;;;25.75;3.50;;;;;;;;;;4995503;28;20026;-75
2022/10/12 09:06:33;;;;;;;17.25;3.33;;;;;;;;;;4996066;28;20014;-74
2022/10/12 09:09:08;;;;;;;23.98;4.95;;;;;;;;;;4994120;28;20514;-73
2022/10/12 09:11:43;;;;;;;21.85;4.05;;;;;;;;;;4994902;28;20030;-74
2022/10/12 09:14:29;;;;;;;18.17;3.83;;;;;;;;;;4994715;28;20034;-73
2022/10/12 09:16:56;;;;;;;22.83;4.10;;;;;;;;;;4995858;28;20034;-73
2022/10/12 09:19:28;;;;;;;18.45;3.88;;;;;;;;;;4995497;28;20380;-74
2022/10/12 09:21:55;;;;;;;17.77;4.07;;;;;;;;;;4995183;28;20025;-73
2022/10/12 09:24:24;;;;;;;17.95;3.45;;;;;;;;;;4994646;28;20034;-74
2022/10/12 09:26:50;;;;;;;22.58;4.20;;;;;;;;;;4994615;28;20026;-76
2022/10/12 09:29:27;;;;;;;29.73;7.78;;;;;;;;;;4994294;28;20542;-75
2022/10/12 09:32:11;;;;;;;22.80;4.13;;;;;;;;;;4999496;28;20441;-76
2022/10/12 09:34:37;;;;;;;24.17;4.28;;;;;;;;;;4996636;28;20034;-75
2022/10/12 09:37:03;;;;;;;21.85;3.97;;;;;;;;;;4997738;28;20406;-75
2022/10/12 09:39:31;;;;;;;19.52;4.15;;;;;;;;;;4977890;28;20480;-75
2022/10/12 09:41:57;;;;;;;16.90;3.72;;;;;;;;;;4994601;28;20069;-73
2022/10/12 09:44:30;;;;;;;21.73;3.70;;;;;;;;;;4994618;28;20031;-74
2022/10/12 09:47:01;;;;;;;18.67;4.23;;;;;;;;;;4994341;28;20488;-74
2022/10/12 09:49:49;;;;;;;19.88;3.70;;;;;;;;;;4994663;28;20034;-74
2022/10/12 09:52:16;;;;;;;20.50;3.97;;;;;;;;;;4976972;28;20049;-76
2022/10/12 09:54:46;;;;;;;23.55;4.22;;;;;;;;;;4993943;28;20026;-76
2022/10/12 09:57:26;;;;;;;19.92;3.88;;;;;;;;;;4994174;28;20034;-76
2022/10/12 09:59:52;;;;;;;13.93;3.88;;;;;;;;;;4994002;28;20494;-75
2022/10/12 10:02:22;;;;;;;19.42;3.42;;;;;;;;;;4998953;28;20116;-78
2022/10/12 10:04:49;;;;;;;19.63;4.13;;;;;;;;;;4983391;28;20396;-76
2022/10/12 10:07:21;;;;;;;20.25;3.85;;;;;;;;;;4983045;28;20018;-76
2022/10/12 10:09:48;;;;;;;15.80;3.72;;;;;;;;;;4999148;28;20022;-77
2022/10/12 10:12:21;;;;;;;17.17;3.72;;;;;;;;;;4980178;28;20022;-78
2022/10/12 10:14:47;;;;;;;15.52;3.60;;;;;;;;;;5002425;28;20030;-77
2022/10/12 10:17:14;;;;;;;18.05;4.03;;;;;;;;;;5005145;28;20030;-77
2022/10/12 10:19:47;;;;;;;17.55;4.22;;;;;;;;;;5004256;28;20022;-79
2022/10/12 10:22:13;;;;;;;16.98;3.55;;;;;;;;;;5002758;28;20026;-76
2022/10/12 10:24:39;;;;;;;22.52;4.15;;;;;;;;;;5010884;28;20483;-75
2022/10/12 10:27:06;;;;;;;20.30;4.75;;;;;;;;;;4997502;28;20027;-77
2022/10/12 10:29:31;;;;;;;22.08;4.25;;;;;;;;;;5005611;28;20034;-76
2022/10/12 10:32:11;;;;;;;24.48;3.50;;;;;;;;;;5001731;28;20112;-77
2022/10/12 10:34:38;;;;;;;13.32;3.33;;;;;;;;;;5003179;28;20552;-76
2022/10/12 10:37:05;;;;;;;24.35;4.03;;;;;;;;;;4999920;28;20026;-78
2022/10/12 10:39:51;;;;;;;21.30;4.32;;;;;;;;;;4999305;28;20089;-76
2022/10/12 10:42:19;;;;;;;22.48;3.55;;;;;;;;;;5001419;28;20046;-75
2022/10/12 10:44:52;;;;;;;17.45;3.60;;;;;;;;;;5006268;28;20026;-77
2022/10/12 10:47:18;;;;;;;18.25;3.38;;;;;;;;;;5004367;28;20029;-77
2022/10/12 10:49:44;;;;;;;15.18;3.53;;;;;;;;;;5003213;28;20028;-75
2022/10/12 10:52:27;;;;;;;12.10;3.10;;;;;;;;;;5004085;28;20081;-77
2022/10/12 10:55:12;;;;;;;17.75;3.78;;;;;;;;;;5006528;28;20220;-77
2022/10/12 10:57:40;;;;;;;13.07;2.83;;;;;;;;;;5010247;28;20038;-73
2022/10/12 11:00:07;;;;;;;17.45;4.00;;;;;;;;;;5017063;28;20478;-74
2022/10/12 11:02:48;;;;;;;19.08;3.67;;;;;;;;;;4993176;28;20034;-78
2022/10/12 11:05:20;;;;;;;10.82;3.28;;;;;;;;;;4999661;28;20061;-77
2022/10/12 11:07:55;;;;;;;15.23;2.90;;;;;;;;;;5000901;28;20450;-79
2022/10/12 11:10:23;;;;;;;14.05;3.17;;;;;;;;;;4981584;28;20057;-77
2022/10/12 11:12:51;;;;;;;18.70;3.58;;;;;;;;;;4999821;28;20023;-79
2022/10/12 11:15:21;;;;;;;19.60;4.97;;;;;;;;;;5003208;28;20030;-76
2022/10/12 11:17:49;;;;;;;14.10;3.17;;;;;;;;;;5003381;28;20031;-77
2022/10/12 11:20:25;;;;;;;11.95;2.97;;;;;;;;;;5004120;28;20118;-77
2022/10/12 11:22:54;;;;;;;14.60;3.42;;;;;;;;;;5004915;28;20064;-76
2022/10/12 11:25:20;;;;;;;18.50;3.22;;;;;;;;;;4984438;28;20034;-75
2022/10/12 11:27:46;;;;;;;19.25;3.35;;;;;;;;;;5003137;28;20022;-76
2022/10/12 11:30:18;;;;;;;9.57;2.78;;;;;;;;;;4988345;28;20037;-75
2022/10/12 11:32:49;;;;;;;8.93;2.42;;;;;;;;;;5009256;28;20029;-77
2022/10/12 11:35:35;;;;;;;15.75;3.15;;;;;;;;;;4987755;28;20066;-78
2022/10/12 11:38:12;;;;;;;15.18;3.03;;;;;;;;;;5006098;28;20030;-78
2022/10/12 11:40:48;;;;;;;13.68;3.25;;;;;;;;;;5003831;28;20034;-77
2022/10/12 11:43:21;;;;;;;14.60;3.30;;;;;;;;;;5007086;28;20037;-79
2022/10/12 11:45:50;;;;;;;15.85;2.72;;;;;;;;;;5004736;28;20037;-78
2022/10/12 11:48:20;;;;;;;13.98;3.15;;;;;;;;;;5005036;28;20029;-79
2022/10/12 11:50:48;;;;;;;11.90;2.65;;;;;;;;;;4986536;28;20454;-80
2022/10/12 11:53:32;;;;;;;14.15;3.15;;;;;;;;;;4987015;28;20456;-76
2022/10/12 11:55:58;;;;;;;18.77;3.33;;;;;;;;;;5012820;28;20041;-80
2022/10/12 11:58:32;;;;;;;13.82;3.17;;;;;;;;;;5002833;28;20426;-78
2022/10/12 12:01:07;;;;;;;13.48;3.22;;;;;;;;;;5003883;28;20424;-81
2022/10/12 12:03:49;;;;;;;10.18;2.75;;;;;;;;;;5004782;28;20057;-76
2022/10/12 12:06:35;;;;;;;10.00;2.65;;;;;;;;;;5006799;28;20022;-78
2022/10/12 12:09:01;;;;;;;11.05;3.00;;;;;;;;;;4998788;28;20044;-81
2022/10/12 12:11:28;;;;;;;14.40;2.88;;;;;;;;;;5006356;28;20365;-77
2022/10/12 12:14:13;;;;;;;14.52;2.67;;;;;;;;;;5006453;28;20031;-77
2022/10/12 12:16:42;;;;;;;15.25;3.00;;;;;;;;;;5001619;28;20041;-79
2022/10/12 12:19:10;;;;;;;10.80;2.75;;;;;;;;;;5002403;28;20026;-76
2022/10/12 12:21:55;;;;;;;15.77;3.17;;;;;;;;;;4997760;28;20030;-75
2022/10/12 12:24:22;;;;;;;13.38;3.08;;;;;;;;;;5002343;28;20479;-76
2022/10/12 12:26:48;;;;;;;12.65;3.17;;;;;;;;;;5001275;28;20037;-76
2022/10/12 12:31:42;;;;;;;10.85;3.47;;;;;;;;;;5038021;22;20050;-77
2022/10/12 12:34:15;;;;;;;15.48;3.08;;;;;;;;;;5021644;28;20030;-76
2022/10/12 12:36:46;;;;;;;13.88;3.22;;;;;;;;;;5019160;28;20029;-75
2022/10/12 12:39:26;;;;;;;13.27;3.40;;;;;;;;;;5020273;28;20086;-77
2022/10/12 12:41:56;;;;;;;17.75;3.60;;;;;;;;;;4998341;28;20360;-77
2022/10/12 12:44:37;;;;;;;14.82;3.08;;;;;;;;;;4997856;28;20034;-77
2022/10/12 12:47:03;;;;;;;14.00;3.13;;;;;;;;;;4999238;28;20042;-77
2022/10/12 12:49:29;;;;;;;15.85;3.40;;;;;;;;;;4983462;28;20026;-77
2022/10/12 12:51:56;;;;;;;14.05;4.13;;;;;;;;;;4999576;28;20487;-76
2022/10/12 12:54:23;;;;;;;13.77;3.38;;;;;;;;;;4981554;28;20026;-77
2022/10/12 12:57:02;;;;;;;18.67;3.63;;;;;;;;;;4981232;28;20042;-76
2022/10/12 12:59:37;;;;;;;13.55;3.22;;;;;;;;;;4998362;28;20463;-77
2022/10/12 13:02:22;;;;;;;16.40;3.00;;;;;;;;;;4998063;28;20383;-75
2022/10/12 13:04:59;;;;;;;12.30;2.88;;;;;;;;;;4998038;28;20111;-76
2022/10/12 13:07:25;;;;;;;15.10;3.50;;;;;;;;;;4999291;28;20025;-76
2022/10/12 13:10:16;;;;;;;16.40;3.03;;;;;;;;;;4999429;28;20102;-75
2022/10/12 13:12:47;;;;;;;13.35;3.15;;;;;;;;;;5000103;28;20030;-76
2022/10/12 13:15:27;;;;;;;15.00;3.25;;;;;;;;;;5012158;28;20098;-76
2022/10/12 13:17:58;;;;;;;16.30;3.20;;;;;;;;;;5015315;28;20102;-76
2022/10/12 13:20:26;;;;;;;15.57;3.58;;;;;;;;;;5015486;28;20027;-77
2022/10/12 13:22:53;;;;;;;13.55;3.28;;;;;;;;;;5014150;28;20050;-76
2022/10/12 13:25:32;;;;;;;12.10;3.33;;;;;;;;;;5014835;28;20038;-75
2022/10/12 13:27:59;;;;;;;15.48;2.75;;;;;;;;;;5014973;28;20042;-76
2022/10/12 13:30:28;;;;;;;13.60;2.83;;;;;;;;;;5013197;28;20061;-76
2022/10/12 13:33:01;;;;;;;14.95;2.70;;;;;;;;;;5010869;28;20026;-75
2022/10/12 13:35:32;;;;;;;11.20;2.50;;;;;;;;;;5012718;28;20058;-77
2022/10/12 13:37:59;;;;;;;12.32;2.95;;;;;;;;;;5013987;28;20018;-75
2022/10/12 13:40:30;;;;;;;16.73;2.88;;;;;;;;;;4999713;28;20026;-76
2022/10/12 13:42:56;;;;;;;16.02;2.70;;;;;;;;;;5015794;28;20069;-75
2022/10/12 13:45:22;;;;;;;12.80;2.78;;;;;;;;;;5015864;28;20030;-78
2022/10/12 13:47:48;;;;;;;10.75;3.22;;;;;;;;;;5013758;28;20026;-76
2022/10/12 13:50:18;;;;;;;10.60;2.55;;;;;;;;;;5008512;28;20400;-77
2022/10/12 13:52:52;;;;;;;14.13;2.55;;;;;;;;;;4999536;28;20052;-77
2022/10/12 13:55:18;;;;;;;13.65;3.00;;;;;;;;;;4997342;28;20054;-76
2022/10/12 13:57:49;;;;;;;10.52;3.08;;;;;;;;;;4978885;28;20522;-77
2022/10/12 14:00:15;;;;;;;11.23;2.42;;;;;;;;;;4997757;28;20073;-77
2022/10/12 14:02:42;;;;;;;9.45;2.45;;;;;;;;;;4996393;28;20038;-77
2022/10/12 14:05:19;;;;;;;15.18;3.03;;;;;;;;;;4997077;28;20105;-77
2022/10/12 14:07:45;;;;;;;13.73;2.85;;;;;;;;;;5004694;28;20049;-77
2022/10/12 14:10:14;;;;;;;18.88;3.05;;;;;;;;;;5015040;28;20022;-76
2022/10/12 14:12:41;;;;;;;14.52;2.70;;;;;;;;;;5016382;28;20064;-76
2022/10/12 14:15:07;;;;;;;15.35;3.22;;;;;;;;;;5015022;28;20026;-76
2022/10/12 14:17:40;;;;;;;15.27;2.80;;;;;;;;;;5015686;28;20037;-77
2022/10/12 14:20:25;;;;;;;12.10;2.75;;;;;;;;;;5016128;28;20096;-76
2022/10/12 14:22:51;;;;;;;17.13;3.00;;;;;;;;;;5026594;28;20665;-75
2022/10/12 14:25:19;;;;;;;15.50;3.17;;;;;;;;;;5030854;28;20018;-75
2022/10/12 14:27:45;;;;;;;10.43;2.72;;;;;;;;;;5025622;28;20032;-76
2022/10/12 14:30:19;;;;;;;11.57;2.45;;;;;;;;;;5014626;28;20058;-78
2022/10/12 14:32:46;;;;;;;10.65;2.65;;;;;;;;;;5013919;28;20053;-77
2022/10/12 14:35:18;;;;;;;13.88;3.30;;;;;;;;;;4994442;28;20072;-77
2022/10/12 14:37:44;;;;;;;15.25;4.50;;;;;;;;;;4996150;28;20026;-77
2022/10/12 14:40:31;;;;;;;10.48;3.22;;;;;;;;;;4994764;28;20030;-77
2022/10/12 14:42:58;;;;;;;12.15;2.63;;;;;;;;;;4996048;28;20018;-76